createdAt,value
2023-05-24T00:01:57.056Z,101194.38
2023-05-24T00:04:25.263Z,101194.50
2023-05-24T00:06:54.913Z,101202.94
2023-05-24T00:09:22.128Z,101196.00
2023-05-24T00:11:48.856Z,101202.38
2023-05-24T00:14:15.973Z,101204.09
2023-05-24T00:16:42.613Z,101194.25
2023-05-24T00:19:11.295Z,101195.81
2023-05-24T00:21:38.407Z,101194.88
2023-05-24T00:24:06.766Z,101184.66
2023-05-24T00:26:33.388Z,101192.38
2023-05-24T00:28:59.986Z,101183.06
2023-05-24T00:31:27.090Z,101184.84
2023-05-24T00:33:53.724Z,101190.72
2023-05-24T00:38:48.053Z,101188.50
2023-05-24T00:41:16.292Z,101180.22
2023-05-24T00:43:46.099Z,101176.38
2023-05-24T00:46:15.745Z,101178.47
2023-05-24T00:48:43.376Z,101181.66
2023-05-24T00:51:12.112Z,101169.84
2023-05-24T00:53:41.325Z,101170.13
2023-05-24T00:56:09.362Z,101167.28
2023-05-24T00:58:36.518Z,101179.84
2023-05-24T01:01:03.690Z,101179.69
2023-05-24T01:03:30.596Z,101178.19
2023-05-24T01:06:03.397Z,101175.16
2023-05-24T01:08:43.227Z,101166.84
2023-05-24T01:11:45.884Z,101174.94
2023-05-24T01:14:29.795Z,101176.28
2023-05-24T01:17:05.179Z,101164.44
2023-05-24T01:19:48.958Z,101163.16
2023-05-24T01:22:37.902Z,101163.66
2023-05-24T01:25:09.302Z,101167.16
2023-05-24T01:27:38.318Z,101168.97
2023-05-24T01:30:06.021Z,101166.97
2023-05-24T01:32:33.135Z,101165.84
2023-05-24T01:34:59.799Z,101160.81
2023-05-24T01:37:26.435Z,101161.81
2023-05-24T01:39:53.366Z,101158.50
2023-05-24T01:42:46.101Z,101161.63
2023-05-24T01:45:47.392Z,101161.50
2023-05-24T01:48:47.121Z,101153.34
2023-05-24T01:51:18.386Z,101145.53
2023-05-24T01:53:49.200Z,101152.09
2023-05-24T01:56:17.636Z,101147.94
2023-05-24T01:58:46.673Z,101142.44
2023-05-24T02:01:14.250Z,101137.16
2023-05-24T02:03:41.335Z,101134.72
2023-05-24T02:06:08.518Z,101131.25
2023-05-24T02:08:35.155Z,101131.09
2023-05-24T02:11:02.530Z,101131.59
2023-05-24T02:13:29.935Z,101125.47
2023-05-24T02:15:56.516Z,101124.78
2023-05-24T02:18:25.574Z,101133.75
2023-05-24T02:20:53.359Z,101137.09
2023-05-24T02:23:19.960Z,101130.03
2023-05-24T02:25:46.613Z,101128.50
2023-05-24T02:28:13.258Z,101120.06
2023-05-24T02:30:40.211Z,101132.16
2023-05-24T02:33:07.042Z,101128.91
2023-05-24T02:35:34.316Z,101135.31
2023-05-24T02:38:02.492Z,101134.88
2023-05-24T02:40:29.179Z,101127.41
2023-05-24T02:42:55.874Z,101127.28
2023-05-24T02:45:22.458Z,101137.06
2023-05-24T02:47:49.280Z,101135.50
2023-05-24T02:50:16.253Z,101128.78
2023-05-24T02:52:42.854Z,101128.09
2023-05-24T02:55:09.806Z,101127.28
2023-05-24T02:57:37.823Z,101127.50
2023-05-24T03:00:09.342Z,101124.44
2023-05-24T03:02:38.525Z,101126.81
2023-05-24T03:05:06.338Z,101117.16
2023-05-24T03:07:32.955Z,101130.16
2023-05-24T03:10:00.312Z,101116.94
2023-05-24T03:12:26.927Z,101119.16
2023-05-24T03:14:54.154Z,101120.88
2023-05-24T03:17:21.416Z,101119.56
2023-05-24T03:19:49.037Z,101117.75
2023-05-24T03:22:15.689Z,101117.16
2023-05-24T03:24:42.252Z,101119.72
2023-05-24T03:27:10.999Z,101117.50
2023-05-24T03:29:37.869Z,101118.88
2023-05-24T03:32:05.826Z,101127.03
2023-05-24T03:34:33.670Z,101122.25
2023-05-24T03:37:00.587Z,101117.78
2023-05-24T03:39:28.052Z,101118.81
2023-05-24T03:42:09.621Z,101123.88
2023-05-24T03:44:36.748Z,101125.25
2023-05-24T03:47:03.833Z,101130.75
2023-05-24T03:49:31.826Z,101129.81
2023-05-24T03:51:58.536Z,101127.91
2023-05-24T03:54:25.121Z,101125.66
2023-05-24T03:56:53.465Z,101126.16
2023-05-24T03:59:20.482Z,101125.94
2023-05-24T04:01:47.698Z,101132.69
2023-05-24T04:04:14.946Z,101124.56
2023-05-24T04:06:41.901Z,101134.69
2023-05-24T04:09:10.035Z,101129.31
2023-05-24T04:11:36.784Z,101136.25
2023-05-24T04:14:03.670Z,101135.22
2023-05-24T04:16:34.562Z,101136.06
2023-05-24T04:19:05.013Z,101139.78
2023-05-24T04:21:33.225Z,101141.06
2023-05-24T04:24:01.586Z,101136.00
2023-05-24T04:26:28.252Z,101139.66
2023-05-24T04:28:55.594Z,101131.31
2023-05-24T04:31:22.256Z,101141.66
2023-05-24T04:33:50.057Z,101143.69
2023-05-24T04:36:17.610Z,101140.31
2023-05-24T04:38:46.093Z,101142.72
2023-05-24T04:41:13.409Z,101137.25
2023-05-24T04:43:40.667Z,101148.03
2023-05-24T04:46:09.444Z,101153.91
2023-05-24T04:48:36.501Z,101152.22
2023-05-24T04:51:03.422Z,101157.25
2023-05-24T04:53:30.389Z,101157.47
2023-05-24T04:55:56.972Z,101155.63
2023-05-24T04:58:23.717Z,101153.38
2023-05-24T05:00:50.696Z,101156.31
2023-05-24T05:03:17.407Z,101161.34
2023-05-24T05:05:45.127Z,101158.47
2023-05-24T05:08:12.172Z,101152.69
2023-05-24T05:10:38.746Z,101158.97
2023-05-24T05:13:05.695Z,101164.72
2023-05-24T05:15:32.602Z,101165.06
2023-05-24T05:17:59.328Z,101153.56
2023-05-24T05:20:26.151Z,101161.38
2023-05-24T05:22:53.247Z,101166.56
2023-05-24T05:25:20.111Z,101164.56
2023-05-24T05:27:47.129Z,101167.97
2023-05-24T05:30:14.388Z,101162.56
2023-05-24T05:32:41.129Z,101164.22
2023-05-24T05:35:08.629Z,101166.56
2023-05-24T05:37:35.171Z,101154.63
2023-05-24T05:40:01.782Z,101168.38
2023-05-24T05:42:28.396Z,101165.66
2023-05-24T05:44:54.997Z,101163.13
2023-05-24T05:47:21.641Z,101164.69
2023-05-24T05:49:48.232Z,101163.44
2023-05-24T05:52:14.787Z,101164.59
2023-05-24T05:54:41.383Z,101161.16
2023-05-24T05:57:10.421Z,101156.91
2023-05-24T05:59:38.578Z,101166.53
2023-05-24T06:02:06.834Z,101166.19
2023-05-24T06:04:33.930Z,101164.50
2023-05-24T06:07:00.820Z,101176.13
2023-05-24T06:09:27.978Z,101170.50
2023-05-24T06:11:54.644Z,101183.03
2023-05-24T06:14:25.459Z,101174.84
2023-05-24T06:16:54.579Z,101180.06
2023-05-24T06:19:21.708Z,101180.84
2023-05-24T06:21:49.484Z,101171.75
2023-05-24T06:24:22.586Z,101186.44
2023-05-24T06:26:51.212Z,101183.97
2023-05-24T06:29:22.693Z,101186.78
2023-05-24T06:31:50.795Z,101190.78
2023-05-24T06:34:21.658Z,101192.56
2023-05-24T06:36:50.959Z,101192.56
2023-05-24T06:39:17.770Z,101191.50
2023-05-24T06:41:44.899Z,101195.94
2023-05-24T06:44:11.843Z,101189.81
2023-05-24T06:46:39.309Z,101202.72
2023-05-24T06:49:06.314Z,101201.00
2023-05-24T06:51:36.695Z,101196.94
2023-05-24T06:54:03.635Z,101193.44
2023-05-24T06:56:30.981Z,101195.91
2023-05-24T06:58:59.456Z,101199.28
2023-05-24T07:01:27.565Z,101200.19
2023-05-24T07:03:54.319Z,101206.94
2023-05-24T07:06:21.328Z,101209.59
2023-05-24T07:08:47.868Z,101208.28
2023-05-24T07:11:14.969Z,101210.84
2023-05-24T07:13:41.520Z,101210.28
2023-05-24T07:16:08.322Z,101215.34
2023-05-24T07:18:35.127Z,101213.84
2023-05-24T07:21:01.711Z,101225.59
2023-05-24T07:23:28.316Z,101220.16
2023-05-24T07:25:55.196Z,101221.84
2023-05-24T07:28:21.809Z,101226.75
2023-05-24T07:30:48.910Z,101214.50
2023-05-24T07:33:16.531Z,101222.22
2023-05-24T07:35:43.258Z,101224.63
2023-05-24T07:38:09.986Z,101225.75
2023-05-24T07:40:36.620Z,101231.16
2023-05-24T07:43:04.225Z,101233.75
2023-05-24T07:45:31.699Z,101231.72
2023-05-24T07:47:58.436Z,101232.75
2023-05-24T07:50:25.332Z,101227.16
2023-05-24T07:52:52.016Z,101230.97
2023-05-24T07:55:18.649Z,101223.56
2023-05-24T07:57:45.848Z,101234.66
2023-05-24T08:00:14.751Z,101239.50
2023-05-24T08:02:42.582Z,101239.47
2023-05-24T08:05:12.270Z,101242.44
2023-05-24T08:07:40.181Z,101239.91
2023-05-24T08:10:07.754Z,101242.63
2023-05-24T08:12:34.332Z,101237.75
2023-05-24T08:15:00.944Z,101243.53
2023-05-24T08:17:27.723Z,101247.16
2023-05-24T08:19:54.415Z,101250.97
2023-05-24T08:22:21.923Z,101245.63
2023-05-24T08:24:48.719Z,101244.50
2023-05-24T08:27:15.288Z,101242.06
2023-05-24T08:29:42.536Z,101257.69
2023-05-24T08:32:09.691Z,101256.38
2023-05-24T08:34:37.588Z,101262.44
2023-05-24T08:37:05.232Z,101265.16
2023-05-24T08:39:32.480Z,101257.84
2023-05-24T08:44:37.748Z,101265.91
2023-05-24T08:47:04.845Z,101262.81
2023-05-24T08:49:34.047Z,101269.16
2023-05-24T08:52:02.126Z,101271.66
2023-05-24T08:54:29.847Z,101277.53
2023-05-24T08:56:57.607Z,101276.47
2023-05-24T08:59:25.251Z,101274.25
2023-05-24T09:01:54.470Z,101281.81
2023-05-24T09:04:23.192Z,101279.66
2023-05-24T09:06:51.723Z,101274.72
2023-05-24T09:09:21.405Z,101283.59
2023-05-24T09:11:51.884Z,101284.72
2023-05-24T09:14:19.026Z,101284.03
2023-05-24T09:16:46.637Z,101272.91
2023-05-24T09:19:14.104Z,101275.56
2023-05-24T09:21:40.876Z,101269.03
2023-05-24T09:24:09.041Z,101263.22
2023-05-24T09:26:38.604Z,101270.59
2023-05-24T09:29:09.273Z,101265.34
2023-05-24T09:31:37.414Z,101271.34
2023-05-24T09:34:09.989Z,101278.66
2023-05-24T09:36:41.841Z,101279.56
2023-05-24T09:39:11.547Z,101278.00
2023-05-24T09:41:38.794Z,101282.47
2023-05-24T09:44:06.305Z,101274.38
2023-05-24T09:46:36.366Z,101279.50
2023-05-24T09:49:07.974Z,101277.09
2023-05-24T09:51:38.260Z,101287.66
2023-05-24T09:54:05.552Z,101284.56
2023-05-24T09:56:35.894Z,101282.81
2023-05-24T09:59:09.850Z,101274.53
2023-05-24T10:01:36.643Z,101277.69
2023-05-24T10:04:09.308Z,101282.16
2023-05-24T10:06:38.440Z,101281.03
2023-05-24T10:09:09.953Z,101283.66
2023-05-24T10:11:37.274Z,101289.75
2023-05-24T10:14:09.858Z,101285.84
2023-05-24T10:16:38.443Z,101285.22
2023-05-24T10:19:06.988Z,101282.22
2023-05-24T10:21:38.798Z,101283.47
2023-05-24T10:24:08.980Z,101291.19
2023-05-24T10:31:25.548Z,101296.00
2023-05-24T10:33:57.186Z,101289.72
2023-05-24T10:36:28.898Z,101303.88
2023-05-24T10:38:56.380Z,101307.66
2023-05-24T10:41:27.060Z,101300.50
2023-05-24T10:44:08.545Z,101296.47
2023-05-24T10:46:36.266Z,101298.25
2023-05-24T10:49:04.441Z,101297.97
2023-05-24T10:51:35.326Z,101309.00
2023-05-24T10:54:31.574Z,101300.81
2023-05-24T10:57:04.647Z,101301.28
2023-05-24T10:59:39.246Z,101301.44
2023-05-24T11:02:15.352Z,101295.25
2023-05-24T11:04:46.153Z,101299.38
2023-05-24T11:07:15.864Z,101301.03
2023-05-24T11:09:52.819Z,101303.28
2023-05-24T11:12:23.507Z,101307.34
2023-05-24T11:14:53.676Z,101314.66
2023-05-24T11:17:22.722Z,101310.38
2023-05-24T11:19:54.939Z,101305.81
2023-05-24T11:22:24.342Z,101308.78
2023-05-24T11:24:52.491Z,101291.41
2023-05-24T11:27:19.137Z,101297.88
2023-05-24T11:29:47.639Z,101302.94
2023-05-24T11:32:19.672Z,101300.44
2023-05-24T11:34:47.130Z,101309.53
2023-05-24T11:37:16.061Z,101301.84
2023-05-24T11:39:49.242Z,101299.34
2023-05-24T11:42:16.242Z,101300.41
2023-05-24T11:44:42.820Z,101304.50
2023-05-24T11:47:09.495Z,101306.41
2023-05-24T11:49:36.114Z,101304.78
2023-05-24T11:52:03.177Z,101312.56
2023-05-24T11:54:32.641Z,101307.00
2023-05-24T11:56:59.608Z,101302.88
2023-05-24T11:59:27.989Z,101310.88
2023-05-24T12:02:04.357Z,101307.72
2023-05-24T12:04:32.272Z,101316.59
2023-05-24T12:06:59.350Z,101322.97
2023-05-24T12:09:27.059Z,101320.28
2023-05-24T12:11:54.368Z,101322.31
2023-05-24T12:14:27.726Z,101321.03
2023-05-24T12:16:56.498Z,101315.63
2023-05-24T12:19:33.663Z,101316.69
2023-05-24T12:22:04.949Z,101322.03
2023-05-24T12:24:32.103Z,101329.41
2023-05-24T12:27:06.655Z,101325.84
2023-05-24T12:29:38.680Z,101333.91
2023-05-24T12:32:11.760Z,101327.06
2023-05-24T12:34:41.946Z,101332.38
2023-05-24T12:37:09.261Z,101330.44
2023-05-24T12:39:37.372Z,101332.91
2023-05-24T12:42:04.640Z,101333.09
2023-05-24T12:44:34.549Z,101333.44
2023-05-24T12:47:03.929Z,101334.72
2023-05-24T12:49:32.278Z,101334.44
2023-05-24T12:51:59.737Z,101322.72
2023-05-24T12:54:27.860Z,101329.69
2023-05-24T12:56:56.702Z,101328.16
2023-05-24T12:59:24.234Z,101322.25
2023-05-24T13:01:51.913Z,101325.59
2023-05-24T13:04:20.928Z,101322.81
2023-05-24T13:06:48.329Z,101322.78
2023-05-24T13:09:16.523Z,101318.78
2023-05-24T13:11:43.470Z,101320.75
2023-05-24T13:14:11.420Z,101319.59
2023-05-24T13:16:38.017Z,101315.91
2023-05-24T13:19:05.281Z,101321.25
2023-05-24T13:21:32.186Z,101329.53
2023-05-24T13:23:59.308Z,101321.94
2023-05-24T13:26:26.105Z,101325.84
2023-05-24T13:31:22.227Z,101326.97
2023-05-24T13:33:49.162Z,101322.50
2023-05-24T13:36:17.284Z,101320.97
2023-05-24T13:38:44.431Z,101318.94
2023-05-24T13:41:11.073Z,101331.00
2023-05-24T13:43:37.853Z,101325.03
2023-05-24T13:46:04.683Z,101324.63
2023-05-24T13:48:31.427Z,101331.00
2023-05-24T13:50:58.502Z,101328.81
2023-05-24T13:53:26.530Z,101316.78
2023-05-24T13:55:53.746Z,101315.94
2023-05-24T13:58:20.381Z,101326.16
2023-05-24T14:00:47.042Z,101319.56
2023-05-24T14:03:15.737Z,101321.91
2023-05-24T14:05:42.867Z,101326.34
2023-05-24T14:08:09.572Z,101330.09
2023-05-24T14:10:36.989Z,101336.25
2023-05-24T14:15:36.864Z,101333.81
2023-05-24T14:18:07.829Z,101327.16
2023-05-24T14:20:40.189Z,101335.16
2023-05-24T14:23:12.489Z,101339.56
2023-05-24T14:25:39.171Z,101342.94
2023-05-24T14:28:07.575Z,101344.75
2023-05-24T14:30:34.414Z,101346.88
2023-05-24T14:33:01.133Z,101336.31
2023-05-24T14:35:28.477Z,101342.66
2023-05-24T14:37:55.414Z,101348.19
2023-05-24T14:40:22.272Z,101338.34
2023-05-24T14:42:49.489Z,101350.31
2023-05-24T14:45:16.325Z,101342.91
2023-05-24T14:47:43.272Z,101351.53
2023-05-24T14:50:10.451Z,101349.38
2023-05-24T14:52:37.194Z,101353.31
2023-05-24T14:55:04.486Z,101346.00
2023-05-24T14:57:31.057Z,101349.97
2023-05-24T14:59:57.621Z,101353.56
2023-05-24T15:02:24.323Z,101353.50
2023-05-24T15:04:51.408Z,101361.66
2023-05-24T15:07:18.236Z,101356.47
2023-05-24T15:09:44.806Z,101355.03
2023-05-24T15:12:11.395Z,101359.44
2023-05-24T15:14:38.632Z,101358.22
2023-05-24T15:17:05.358Z,101357.66
2023-05-24T15:19:32.126Z,101352.44
2023-05-24T15:21:59.670Z,101362.25
2023-05-24T15:24:26.701Z,101360.31
2023-05-24T15:26:53.598Z,101357.00
2023-05-24T15:29:21.366Z,101363.66
2023-05-24T15:31:48.107Z,101372.94
2023-05-24T15:34:14.886Z,101356.16
2023-05-24T15:36:41.495Z,101358.78
2023-05-24T15:39:08.997Z,101358.44
2023-05-24T15:41:37.779Z,101362.25
2023-05-24T15:44:08.805Z,101361.72
2023-05-24T15:46:36.569Z,101369.06
2023-05-24T15:49:03.718Z,101370.00
2023-05-24T15:54:00.274Z,101368.75
2023-05-24T15:56:27.698Z,101370.50
2023-05-24T15:58:54.272Z,101371.25
2023-05-24T16:01:21.427Z,101371.91
2023-05-24T16:03:48.406Z,101361.84
2023-05-24T16:06:15.230Z,101359.97
2023-05-24T16:08:41.854Z,101360.56
2023-05-24T16:11:10.006Z,101364.00
2023-05-24T16:13:36.582Z,101357.88
2023-05-24T16:16:03.215Z,101357.38
2023-05-24T16:18:34.266Z,101360.09
2023-05-24T16:21:01.064Z,101357.69
2023-05-24T16:23:27.675Z,101354.81
2023-05-24T16:25:54.615Z,101351.31
2023-05-24T16:28:24.877Z,101346.22
2023-05-24T16:30:55.623Z,101345.16
2023-05-24T16:33:23.739Z,101350.88
2023-05-24T16:35:55.882Z,101348.94
2023-05-24T16:38:23.800Z,101340.84
2023-05-24T16:40:50.787Z,101344.00
2023-05-24T16:43:18.386Z,101345.50
2023-05-24T16:45:45.682Z,101345.13
2023-05-24T16:48:14.227Z,101341.38
2023-05-24T16:50:41.329Z,101345.88
2023-05-24T16:53:08.342Z,101339.88
2023-05-24T16:55:35.878Z,101336.97
2023-05-24T16:58:02.473Z,101335.91
2023-05-24T17:00:29.054Z,101350.94
2023-05-24T17:02:59.244Z,101336.78
2023-05-24T17:05:26.412Z,101341.19
2023-05-24T17:07:53.027Z,101342.16
2023-05-24T17:10:19.708Z,101347.16
2023-05-24T17:12:47.461Z,101350.03
2023-05-24T17:15:14.065Z,101354.38
2023-05-24T17:17:40.724Z,101348.94
2023-05-24T17:20:07.821Z,101359.97
2023-05-24T17:22:34.535Z,101365.78
2023-05-24T17:25:01.499Z,101359.41
2023-05-24T17:27:28.094Z,101367.34
2023-05-24T17:29:54.697Z,101371.22
2023-05-24T17:32:21.556Z,101363.50
2023-05-24T17:34:48.402Z,101359.09
2023-05-24T17:37:15.008Z,101364.41
2023-05-24T17:39:41.602Z,101362.16
2023-05-24T17:42:08.410Z,101369.47
2023-05-24T17:44:35.453Z,101372.53
2023-05-24T17:47:02.417Z,101371.31
2023-05-24T17:49:29.542Z,101369.03
2023-05-24T17:51:56.093Z,101370.00
2023-05-24T17:54:22.870Z,101371.06
2023-05-24T17:56:49.681Z,101373.06
2023-05-24T17:59:16.668Z,101372.06
2023-05-24T18:01:45.139Z,101378.41
2023-05-24T18:04:12.203Z,101376.81
2023-05-24T18:06:38.849Z,101378.88
2023-05-24T18:09:05.656Z,101388.00
2023-05-24T18:11:32.343Z,101389.84
2023-05-24T18:14:00.818Z,101390.94
2023-05-24T18:16:27.623Z,101388.56
2023-05-24T18:18:54.900Z,101393.44
2023-05-24T18:21:21.946Z,101391.81
2023-05-24T18:23:48.628Z,101389.97
2023-05-24T18:26:15.702Z,101390.41
2023-05-24T18:28:42.986Z,101384.50
2023-05-24T18:31:14.738Z,101380.75
2023-05-24T18:33:41.936Z,101384.59
2023-05-24T18:36:08.866Z,101389.41
2023-05-24T18:38:36.932Z,101388.13
2023-05-24T18:41:06.590Z,101389.56
2023-05-24T18:43:33.603Z,101387.41
2023-05-24T18:46:00.978Z,101393.03
2023-05-24T18:48:27.709Z,101386.41
2023-05-24T18:50:54.834Z,101388.59
2023-05-24T18:53:21.622Z,101393.41
2023-05-24T18:55:48.372Z,101396.78
2023-05-24T18:58:15.531Z,101397.63
2023-05-24T19:00:42.332Z,101393.84
2023-05-24T19:03:11.980Z,101394.44
2023-05-24T19:05:42.585Z,101391.34
2023-05-24T19:08:10.551Z,101393.97
2023-05-24T19:10:37.548Z,101395.09
2023-05-24T19:13:04.298Z,101406.59
2023-05-24T19:15:31.066Z,101407.31
2023-05-24T19:17:58.275Z,101408.47
2023-05-24T19:20:25.276Z,101404.47
2023-05-24T19:22:52.051Z,101410.06
2023-05-24T19:25:19.358Z,101408.13
2023-05-24T19:30:22.346Z,101416.75
2023-05-24T19:32:49.173Z,101410.16
2023-05-24T19:35:16.059Z,101419.88
2023-05-24T19:37:42.936Z,101423.53
2023-05-24T19:40:10.242Z,101429.22
2023-05-24T19:42:37.273Z,101429.66
2023-05-24T19:45:04.967Z,101438.53
2023-05-24T19:47:31.835Z,101444.13
2023-05-24T19:49:58.615Z,101440.81
2023-05-24T19:52:25.844Z,101443.63
2023-05-24T19:54:52.630Z,101436.78
2023-05-24T19:57:19.362Z,101448.00
2023-05-24T19:59:46.033Z,101449.13
2023-05-24T20:02:12.732Z,101456.13
2023-05-24T20:04:41.872Z,101460.91
2023-05-24T20:07:08.907Z,101459.00
2023-05-24T20:09:36.057Z,101465.00
2023-05-24T20:12:03.161Z,101463.38
2023-05-24T20:14:33.066Z,101464.72
2023-05-24T20:17:01.444Z,101470.16
2023-05-24T20:19:28.221Z,101472.88
2023-05-24T20:21:54.950Z,101468.13
2023-05-24T20:24:21.734Z,101472.84
2023-05-24T20:26:48.668Z,101478.94
2023-05-24T20:29:15.494Z,101478.75
2023-05-24T20:31:42.593Z,101478.94
2023-05-24T20:34:09.603Z,101491.47
2023-05-24T20:36:36.904Z,101484.97
2023-05-24T20:39:03.841Z,101484.69
2023-05-24T20:41:30.599Z,101488.44
2023-05-24T20:43:57.289Z,101495.31
2023-05-24T20:46:24.078Z,101489.06
2023-05-24T20:48:51.522Z,101488.56
2023-05-24T20:51:19.760Z,101493.13
2023-05-24T20:53:46.798Z,101484.13
2023-05-24T20:56:13.543Z,101485.44
2023-05-24T20:58:41.287Z,101492.44
2023-05-24T21:01:08.612Z,101493.66
2023-05-24T21:03:35.661Z,101498.38
2023-05-24T21:06:02.707Z,101495.69
2023-05-24T21:08:29.297Z,101500.56
2023-05-24T21:10:56.703Z,101501.44
2023-05-24T21:13:25.738Z,101509.38
2023-05-24T21:15:52.709Z,101508.03
2023-05-24T21:18:19.341Z,101504.28
2023-05-24T21:20:46.115Z,101506.66
2023-05-24T21:23:12.727Z,101507.16
2023-05-24T21:25:39.369Z,101507.34
2023-05-24T21:28:06.029Z,101509.56
2023-05-24T21:30:32.602Z,101507.31
2023-05-24T21:32:59.655Z,101505.13
2023-05-24T21:35:26.955Z,101501.59
2023-05-24T21:37:53.967Z,101511.84
2023-05-24T21:40:20.961Z,101507.28
2023-05-24T21:42:47.594Z,101513.88
2023-05-24T21:45:14.187Z,101519.13
2023-05-24T21:47:42.702Z,101517.78
2023-05-24T21:50:09.673Z,101518.47
2023-05-24T21:52:36.801Z,101520.78
2023-05-24T21:55:03.918Z,101517.81
2023-05-24T21:57:30.817Z,101513.25
2023-05-24T21:59:57.899Z,101516.31
2023-05-24T22:02:24.479Z,101519.91
2023-05-24T22:04:51.306Z,101525.44
2023-05-24T22:07:17.935Z,101530.22
2023-05-24T22:09:45.695Z,101531.25
2023-05-24T22:12:12.283Z,101536.53
2023-05-24T22:14:38.888Z,101543.09
2023-05-24T22:17:05.675Z,101547.88
2023-05-24T22:19:39.409Z,101550.44
2023-05-24T22:22:08.396Z,101561.25
2023-05-24T22:24:35.089Z,101560.44
2023-05-24T22:27:02.812Z,101566.00
2023-05-24T22:29:29.430Z,101564.84
2023-05-24T22:31:56.464Z,101556.72
2023-05-24T22:34:27.662Z,101554.00
2023-05-24T22:36:55.276Z,101566.84
2023-05-24T22:39:22.134Z,101569.88
2023-05-24T22:41:49.135Z,101564.47
2023-05-24T22:44:15.784Z,101562.28
2023-05-24T22:46:42.534Z,101559.91
2023-05-24T22:49:13.103Z,101555.84
2023-05-24T22:51:44.150Z,101559.03
2023-05-24T22:54:11.636Z,101557.00
2023-05-24T22:56:38.790Z,101560.00
2023-05-24T22:59:06.389Z,101560.34
2023-05-24T23:01:33.633Z,101561.03
2023-05-24T23:04:15.886Z,101566.97
2023-05-24T23:06:46.943Z,101571.22
2023-05-24T23:09:13.653Z,101572.38
2023-05-24T23:11:40.311Z,101570.34
2023-05-24T23:14:08.692Z,101569.34
2023-05-24T23:16:40.518Z,101563.25
2023-05-24T23:19:07.277Z,101575.75
2023-05-24T23:21:34.024Z,101584.53
2023-05-24T23:24:02.423Z,101582.34
2023-05-24T23:26:29.140Z,101578.59
2023-05-24T23:28:55.944Z,101571.19
2023-05-24T23:31:22.825Z,101567.28
2023-05-24T23:33:49.434Z,101564.91
2023-05-24T23:36:16.420Z,101572.69
2023-05-24T23:38:43.393Z,101569.72
2023-05-24T23:41:09.967Z,101563.38
2023-05-24T23:43:36.584Z,101573.19
2023-05-24T23:46:03.180Z,101572.19
2023-05-24T23:48:30.516Z,101573.53
2023-05-24T23:50:57.107Z,101570.69
2023-05-24T23:53:23.712Z,101580.81
2023-05-24T23:55:50.377Z,101570.88
2023-05-24T23:58:17.010Z,101579.28
